Time;durP1;ratioP1;P1;durP2;ratioP2;P2;SDS_P1;SDS_P2;PMS_P1;PMS_P2;Temp;Humidity;BMP_temperature;BMP_pressure;BME280_temperature;BME280_humidity;BME280_pressure;Samples;Min_cycle;Max_cycle;Signal;HPM_P1;HPM_P2
2022/04/02 00:00:20;;;;;;;16.75;11.88;;;4.50;57.10;;;;;;2336982;53;21858;-65
2022/04/02 00:02:48;;;;;;;16.60;11.90;;;4.50;57.20;;;;;;2334715;53;21027;-66
2022/04/02 00:05:14;;;;;;;15.68;11.20;;;4.50;57.20;;;;;;2335072;53;20924;-67
2022/04/02 00:07:41;;;;;;;14.48;11.18;;;4.50;57.20;;;;;;2335068;53;20961;-67
2022/04/02 00:10:09;;;;;;;15.57;11.90;;;4.50;57.20;;;;;;2338448;53;21048;-65
2022/04/02 00:12:37;;;;;;;16.08;11.50;;;4.50;57.20;;;;;;2346279;53;20954;-66
2022/04/02 00:15:05;;;;;;;15.00;10.68;;;4.50;57.20;;;;;;2347888;53;21527;-67
2022/04/02 00:17:33;;;;;;;14.50;10.70;;;4.50;57.20;;;;;;2334761;53;21048;-65
2022/04/02 00:19:59;;;;;;;14.93;10.80;;;4.50;57.20;;;;;;2334716;53;21483;-66
2022/04/02 00:22:26;;;;;;;15.48;11.52;;;4.50;57.20;;;;;;2554174;52;20952;-65
2022/04/02 00:24:54;;;;;;;13.27;9.80;;;4.50;57.20;;;;;;2334229;53;20949;-66
2022/04/02 00:27:20;;;;;;;15.70;10.68;;;4.50;57.20;;;;;;2579002;52;20933;-65
2022/04/02 00:29:46;;;;;;;14.90;10.13;;;4.60;57.20;;;;;;2334787;53;22009;-65
2022/04/02 00:32:14;;;;;;;15.05;10.00;;;4.50;57.20;;;;;;2334861;53;21044;-66
2022/04/02 00:34:40;;;;;;;14.87;10.88;;;4.60;57.20;;;;;;2334899;53;20985;-66
2022/04/02 00:37:06;;;;;;;16.30;10.65;;;4.60;57.20;;;;;;2544026;52;21404;-68
2022/04/02 00:39:32;;;;;;;14.10;10.50;;;4.60;57.20;;;;;;2340475;53;21545;-65
2022/04/02 00:41:59;;;;;;;14.00;10.00;;;4.60;57.20;;;;;;2509777;52;20963;-65
2022/04/02 00:44:26;;;;;;;15.48;10.45;;;4.60;57.20;;;;;;2334343;53;20972;-67
2022/04/02 00:46:52;;;;;;;14.32;10.60;;;4.60;57.10;;;;;;2506916;52;21001;-64
2022/04/02 00:49:20;;;;;;;13.95;9.95;;;4.60;57.20;;;;;;2334845;53;20944;-67
2022/04/02 00:51:47;;;;;;;13.68;9.88;;;4.60;57.20;;;;;;2334862;53;20995;-65
2022/04/02 00:54:17;;;;;;;13.62;9.32;;;4.60;57.20;;;;;;2580428;52;20949;-65
2022/04/02 00:56:45;;;;;;;12.98;9.32;;;4.60;57.30;;;;;;2335662;53;20936;-65
2022/04/02 00:59:12;;;;;;;14.50;10.45;;;4.60;57.30;;;;;;2335002;53;20921;-67
2022/04/02 01:01:38;;;;;;;13.98;10.00;;;4.60;57.40;;;;;;2335075;53;21478;-66
2022/04/02 01:04:06;;;;;;;15.30;10.18;;;4.60;57.20;;;;;;2334899;53;20926;-67
2022/04/02 01:06:32;;;;;;;12.30;9.18;;;4.60;57.20;;;;;;2334759;53;21347;-67
2022/04/02 01:09:00;;;;;;;13.27;9.57;;;4.60;57.20;;;;;;2334903;53;20948;-67
2022/04/02 01:11:42;;;;;;;12.18;9.38;;;4.60;57.20;;;;;;2334620;53;21044;-64
2022/04/02 01:14:09;;;;;;;12.98;9.60;;;4.60;57.20;;;;;;2335604;53;20928;-66
2022/04/02 01:16:35;;;;;;;12.30;8.70;;;4.60;57.10;;;;;;2334781;53;20957;-67
2022/04/02 01:19:01;;;;;;;13.02;9.02;;;4.60;57.10;;;;;;2335039;53;21119;-68
2022/04/02 01:21:30;;;;;;;11.30;7.93;;;4.60;57.10;;;;;;2334907;53;21004;-66
2022/04/02 01:23:57;;;;;;;11.75;8.35;;;4.60;57.20;;;;;;2334886;53;21466;-67
2022/04/02 01:26:25;;;;;;;10.65;7.87;;;4.60;57.20;;;;;;2334844;53;20964;-66
2022/04/02 01:28:54;;;;;;;13.35;8.35;;;4.60;57.20;;;;;;2335074;53;21004;-65
2022/04/02 01:31:23;;;;;;;10.60;7.62;;;4.60;57.20;;;;;;2334970;53;21028;-65
2022/04/02 01:33:51;;;;;;;10.05;7.37;;;4.60;57.20;;;;;;2338714;53;21048;-66
2022/04/02 01:36:18;;;;;;;10.07;7.60;;;4.60;57.20;;;;;;2537474;52;20977;-65
2022/04/02 01:38:46;;;;;;;12.07;7.62;;;4.60;57.10;;;;;;2435072;53;20949;-66
2022/04/02 01:41:13;;;;;;;9.73;6.45;;;4.60;57.10;;;;;;2335191;53;21390;-67
2022/04/02 01:43:40;;;;;;;8.60;6.65;;;4.60;57.10;;;;;;2338724;53;21083;-67
2022/04/02 01:46:07;;;;;;;10.05;7.20;;;4.60;57.20;;;;;;2338671;53;21344;-65
2022/04/02 01:48:33;;;;;;;11.48;6.87;;;4.60;57.10;;;;;;2540929;52;20956;-66
2022/04/02 01:50:59;;;;;;;9.32;6.65;;;4.60;57.20;;;;;;2335365;53;20962;-67
2022/04/02 01:53:26;;;;;;;9.60;6.72;;;4.60;57.10;;;;;;2335354;53;21052;-67
2022/04/02 01:55:52;;;;;;;8.98;6.65;;;4.60;57.10;;;;;;2335493;53;21896;-68
2022/04/02 01:58:19;;;;;;;9.73;6.72;;;4.60;57.10;;;;;;2338330;53;20942;-67
2022/04/02 02:00:47;;;;;;;8.32;5.87;;;4.60;57.10;;;;;;2317144;54;20973;-66
2022/04/02 02:03:16;;;;;;;8.77;6.53;;;4.60;57.10;;;;;;2349918;53;20983;-67
2022/04/02 02:05:44;;;;;;;7.57;5.50;;;4.60;57.20;;;;;;2349213;53;20981;-65
2022/04/02 02:08:11;;;;;;;9.13;6.30;;;4.60;57.10;;;;;;2334770;53;21315;-65
2022/04/02 02:10:40;;;;;;;9.48;6.60;;;4.60;57.10;;;;;;2580550;52;20940;-66
2022/04/02 02:13:08;;;;;;;8.07;5.78;;;4.60;57.10;;;;;;2580259;52;21518;-68
2022/04/02 02:15:34;;;;;;;11.63;6.25;;;4.60;57.10;;;;;;2580622;52;20929;-65
2022/04/02 02:18:00;;;;;;;9.00;6.57;;;4.60;57.10;;;;;;2334592;53;20984;-67
2022/04/02 02:20:26;;;;;;;7.87;5.90;;;4.50;57.00;;;;;;2368344;53;20980;-66
2022/04/02 02:22:53;;;;;;;9.25;5.85;;;4.50;57.10;;;;;;2333948;53;21040;-68
2022/04/02 02:25:20;;;;;;;8.40;5.87;;;4.50;57.10;;;;;;2580218;52;20953;-67
2022/04/02 02:27:47;;;;;;;7.43;5.37;;;4.50;57.10;;;;;;2315432;54;20969;-66
2022/04/02 02:30:14;;;;;;;7.95;5.10;;;4.50;57.20;;;;;;2335063;53;22068;-67
2022/04/02 02:32:40;;;;;;;9.65;5.78;;;4.50;57.20;;;;;;2333639;53;21004;-67
2022/04/02 02:38:56;;;;;;;7.65;5.82;;;4.50;57.20;;;;;;2580023;52;21073;-68
2022/04/02 02:41:22;;;;;;;8.13;5.90;;;4.50;57.40;;;;;;2337703;53;21267;-64
2022/04/02 02:43:48;;;;;;;8.65;5.70;;;4.50;57.10;;;;;;2334171;53;21453;-66
2022/04/02 02:46:17;;;;;;;8.13;6.18;;;4.50;57.20;;;;;;2333689;53;20984;-65
2022/04/02 02:48:44;;;;;;;8.38;5.82;;;4.40;57.10;;;;;;2334790;53;20948;-64
2022/04/02 02:51:13;;;;;;;7.47;5.65;;;4.40;57.10;;;;;;2333532;53;20969;-67
2022/04/02 02:53:40;;;;;;;7.62;5.28;;;4.40;57.20;;;;;;2332937;53;21476;-65
2022/04/02 02:56:06;;;;;;;9.02;6.50;;;4.40;57.20;;;;;;2337752;53;21967;-65
2022/04/02 02:58:32;;;;;;;9.88;5.95;;;4.40;57.10;;;;;;2332963;53;20957;-66
2022/04/02 03:00:59;;;;;;;9.63;5.90;;;4.40;57.20;;;;;;2337022;53;21116;-66
2022/04/02 03:03:26;;;;;;;8.00;5.60;;;4.40;57.20;;;;;;2344897;53;20950;-67
2022/04/02 03:05:54;;;;;;;7.68;5.93;;;4.30;57.30;;;;;;2338913;53;21519;-67
2022/04/02 03:08:22;;;;;;;8.05;5.75;;;4.40;57.20;;;;;;2333620;53;20993;-67
2022/04/02 03:10:48;;;;;;;8.13;5.93;;;4.40;57.20;;;;;;2389056;52;21060;-64
2022/04/02 03:13:18;;;;;;;7.40;5.32;;;4.30;57.10;;;;;;2333886;53;21043;-67
2022/04/02 03:15:45;;;;;;;8.32;6.20;;;4.30;57.20;;;;;;2334465;53;22058;-66
2022/04/02 03:18:11;;;;;;;7.87;5.47;;;4.30;57.30;;;;;;2333682;53;20932;-68
2022/04/02 03:20:39;;;;;;;7.93;5.53;;;4.30;57.30;;;;;;2509411;52;20956;-66
2022/04/02 03:23:06;;;;;;;6.72;4.95;;;4.30;57.30;;;;;;2334415;53;22111;-67
2022/04/02 03:25:32;;;;;;;6.72;5.35;;;4.30;57.40;;;;;;2339623;54;22019;-65
2022/04/02 03:27:59;;;;;;;8.05;5.62;;;4.30;57.40;;;;;;2411387;53;21981;-67
2022/04/02 03:30:25;;;;;;;8.88;6.57;;;4.30;57.40;;;;;;2330499;53;20948;-66
2022/04/02 03:32:52;;;;;;;8.15;6.07;;;4.30;57.30;;;;;;2330896;53;20968;-66
2022/04/02 03:35:18;;;;;;;8.77;6.12;;;4.30;57.40;;;;;;2334405;54;21123;-67
2022/04/02 03:37:46;;;;;;;11.20;7.05;;;4.30;57.40;;;;;;2311516;53;20989;-65
2022/04/02 03:40:17;;;;;;;8.48;5.93;;;4.30;57.40;;;;;;2332116;53;20984;-68
2022/04/02 03:42:44;;;;;;;8.10;6.00;;;4.30;57.50;;;;;;2578901;52;20945;-67
2022/04/02 03:45:15;;;;;;;8.65;5.97;;;4.30;57.70;;;;;;2504992;52;21453;-66
2022/04/02 03:47:44;;;;;;;9.23;6.87;;;4.30;57.50;;;;;;2425246;52;20925;-66
2022/04/02 03:50:10;;;;;;;9.35;6.53;;;4.30;57.50;;;;;;2332914;53;21437;-66
2022/04/02 03:52:36;;;;;;;10.10;6.78;;;4.30;57.50;;;;;;2333508;53;21995;-68
2022/04/02 03:55:04;;;;;;;9.55;6.70;;;4.30;57.50;;;;;;2334647;53;20956;-66
2022/04/02 03:57:30;;;;;;;9.52;6.30;;;4.30;57.40;;;;;;2336708;53;21004;-67
2022/04/02 03:59:57;;;;;;;9.63;6.87;;;4.30;57.50;;;;;;2335361;53;21006;-67
2022/04/02 04:02:25;;;;;;;8.80;6.78;;;4.30;57.40;;;;;;2334655;53;20969;-67
2022/04/02 04:04:52;;;;;;;9.98;7.40;;;4.30;57.40;;;;;;2336608;53;21842;-65
2022/04/02 04:07:19;;;;;;;8.63;6.22;;;4.30;57.40;;;;;;2333321;53;20947;-68
2022/04/02 04:09:45;;;;;;;9.55;6.82;;;4.30;57.50;;;;;;2483788;52;21328;-65
2022/04/02 04:12:14;;;;;;;9.20;6.65;;;4.30;57.40;;;;;;2333470;53;20929;-67
2022/04/02 04:14:41;;;;;;;8.55;6.25;;;4.30;57.50;;;;;;2333402;53;21068;-66
2022/04/02 04:17:07;;;;;;;9.82;7.50;;;4.30;57.50;;;;;;2336443;53;20924;-65
2022/04/02 04:19:34;;;;;;;9.20;7.05;;;4.30;57.50;;;;;;2336860;53;21020;-65
2022/04/02 04:22:02;;;;;;;8.68;6.78;;;4.30;57.50;;;;;;2319845;53;22144;-65
2022/04/02 04:24:30;;;;;;;8.65;6.32;;;4.30;58.10;;;;;;2402961;52;20940;-67
2022/04/02 04:27:00;;;;;;;9.23;6.78;;;4.30;57.60;;;;;;2336853;53;20996;-66
2022/04/02 04:29:29;;;;;;;8.52;6.28;;;4.30;57.60;;;;;;2333718;53;21460;-66
2022/04/02 04:31:55;;;;;;;9.32;7.12;;;4.30;57.50;;;;;;2333975;53;22015;-67
2022/04/02 04:34:22;;;;;;;8.75;6.40;;;4.40;57.60;;;;;;2572517;52;20941;-67
2022/04/02 04:36:49;;;;;;;9.43;7.22;;;4.30;57.50;;;;;;2337637;53;21024;-67
2022/04/02 04:39:15;;;;;;;8.45;6.18;;;4.30;57.60;;;;;;2333515;53;20986;-67
2022/04/02 04:41:43;;;;;;;9.15;7.12;;;4.40;57.60;;;;;;2458034;52;21095;-65
2022/04/02 04:44:10;;;;;;;10.48;7.85;;;4.30;57.40;;;;;;2464100;52;20901;-65
2022/04/02 04:46:37;;;;;;;9.50;7.30;;;4.30;57.40;;;;;;2337585;53;21008;-68
2022/04/02 04:49:04;;;;;;;9.80;7.00;;;4.30;57.40;;;;;;2330926;53;21123;-66
2022/04/02 04:51:30;;;;;;;9.02;6.62;;;4.30;57.50;;;;;;2336598;53;21164;-67
2022/04/02 04:53:56;;;;;;;8.48;6.47;;;4.20;57.50;;;;;;2334960;53;21651;-66
2022/04/02 04:56:26;;;;;;;8.70;6.50;;;4.30;57.50;;;;;;2333221;54;20932;-67
2022/04/02 04:58:52;;;;;;;9.10;6.45;;;4.30;57.50;;;;;;2334134;53;20937;-66
2022/04/02 05:01:19;;;;;;;8.25;5.85;;;4.30;57.50;;;;;;2375512;52;22042;-67
2022/04/02 05:03:45;;;;;;;9.57;6.30;;;4.30;57.60;;;;;;2577610;52;20958;-68
2022/04/02 05:06:12;;;;;;;7.82;6.20;;;4.30;57.70;;;;;;2354124;53;20941;-67
2022/04/02 05:08:38;;;;;;;7.60;5.93;;;4.30;57.70;;;;;;2335102;53;20988;-65
2022/04/02 05:11:04;;;;;;;7.75;5.80;;;4.30;57.60;;;;;;2337646;54;20929;-65
2022/04/02 05:13:30;;;;;;;8.20;6.43;;;4.30;57.60;;;;;;2336791;54;21957;-66
2022/04/02 05:15:59;;;;;;;10.65;6.22;;;4.30;57.70;;;;;;2335320;53;21443;-68
2022/04/02 05:18:26;;;;;;;9.10;5.62;;;4.30;58.30;;;;;;2334561;53;20961;-69
2022/04/02 05:20:52;;;;;;;8.00;6.03;;;4.30;57.80;;;;;;2334716;53;20932;-68
2022/04/02 05:23:19;;;;;;;7.80;6.22;;;4.30;57.70;;;;;;2335015;53;20937;-68
2022/04/02 05:25:46;;;;;;;8.48;6.30;;;4.30;57.80;;;;;;2558089;52;20949;-66
2022/04/02 05:28:13;;;;;;;9.05;6.35;;;4.30;57.80;;;;;;2334878;53;21039;-66
2022/04/02 05:30:40;;;;;;;8.23;6.18;;;4.30;57.80;;;;;;2334092;53;20929;-68
2022/04/02 05:33:07;;;;;;;8.40;5.97;;;4.30;57.80;;;;;;2334836;53;21355;-67
2022/04/02 05:35:42;;;;;;;7.93;5.80;;;4.30;57.80;;;;;;2579798;52;21118;-66
2022/04/02 05:38:08;;;;;;;8.93;6.75;;;4.30;57.70;;;;;;2498634;52;20984;-67
2022/04/02 05:40:37;;;;;;;9.20;6.72;;;4.30;57.60;;;;;;2342564;53;20912;-65
2022/04/02 05:43:03;;;;;;;7.72;6.22;;;4.40;57.70;;;;;;2427271;52;20994;-67
2022/04/02 05:45:32;;;;;;;7.93;5.55;;;4.30;57.70;;;;;;2426716;52;20936;-68
2022/04/02 05:47:58;;;;;;;8.32;5.55;;;4.30;57.80;;;;;;2334283;53;20924;-67
2022/04/02 05:50:30;;;;;;;7.82;5.82;;;4.30;57.80;;;;;;2341167;53;20939;-66
2022/04/02 05:53:02;;;;;;;8.02;5.62;;;4.30;57.80;;;;;;2573678;52;20996;-67
2022/04/02 05:55:28;;;;;;;10.00;5.72;;;4.40;57.90;;;;;;2335009;53;22023;-68
2022/04/02 05:57:55;;;;;;;9.55;6.32;;;4.40;57.90;;;;;;2335090;53;21055;-67
2022/04/02 06:00:21;;;;;;;9.70;6.53;;;4.40;57.80;;;;;;2335262;53;20936;-65
2022/04/02 06:02:49;;;;;;;7.75;5.72;;;4.30;57.70;;;;;;2335145;53;21013;-65
2022/04/02 06:05:16;;;;;;;7.62;5.82;;;4.40;57.80;;;;;;2335421;53;21011;-67
2022/04/02 06:07:42;;;;;;;8.77;6.47;;;4.40;57.80;;;;;;2338373;53;21083;-67
2022/04/02 06:10:12;;;;;;;7.65;5.62;;;4.30;57.70;;;;;;2334272;53;20995;-66
2022/04/02 06:12:38;;;;;;;8.27;5.87;;;4.30;57.70;;;;;;2334289;53;20953;-65
2022/04/02 06:15:06;;;;;;;7.87;5.55;;;4.30;57.70;;;;;;2334154;53;20976;-67
2022/04/02 06:17:32;;;;;;;7.70;5.53;;;4.40;57.80;;;;;;2334187;53;20965;-68
2022/04/02 06:19:59;;;;;;;9.68;6.20;;;4.30;57.60;;;;;;2338829;53;20933;-67
2022/04/02 06:22:26;;;;;;;8.65;5.72;;;4.40;57.70;;;;;;2334458;53;20981;-67
2022/04/02 06:24:52;;;;;;;8.00;5.75;;;4.30;57.70;;;;;;2334366;53;21974;-67
2022/04/02 06:27:19;;;;;;;7.40;5.45;;;4.30;57.60;;;;;;2315643;54;21096;-65
2022/04/02 06:29:48;;;;;;;7.93;5.68;;;4.30;57.60;;;;;;2334216;53;20941;-66
2022/04/02 06:32:15;;;;;;;7.43;5.22;;;4.30;57.60;;;;;;2334662;53;20992;-66
2022/04/02 06:34:41;;;;;;;7.25;5.03;;;4.30;57.60;;;;;;2336744;53;20961;-67
2022/04/02 06:37:08;;;;;;;6.15;4.30;;;4.30;57.70;;;;;;2333869;53;20964;-67
2022/04/02 06:39:34;;;;;;;7.53;4.90;;;4.30;57.70;;;;;;2337816;53;20991;-66
2022/04/02 06:42:04;;;;;;;8.25;5.60;;;4.30;58.30;;;;;;2333994;53;20912;-65
2022/04/02 06:44:33;;;;;;;8.30;5.55;;;4.30;57.60;;;;;;2334964;53;20944;-68
2022/04/02 06:47:01;;;;;;;7.43;5.15;;;4.30;57.70;;;;;;2337293;53;21071;-64
2022/04/02 06:49:27;;;;;;;7.60;4.80;;;4.30;57.60;;;;;;2336854;53;21004;-68
2022/04/02 06:51:55;;;;;;;5.30;3.90;;;4.30;57.60;;;;;;2340361;53;21028;-68
2022/04/02 06:54:25;;;;;;;5.90;3.67;;;4.30;57.70;;;;;;2340355;53;20944;-67
2022/04/02 06:56:51;;;;;;;5.80;4.20;;;4.30;57.80;;;;;;2334802;53;20953;-67
2022/04/02 06:59:18;;;;;;;5.25;3.90;;;4.20;57.70;;;;;;2335893;53;20988;-69
2022/04/02 07:01:44;;;;;;;7.87;4.10;;;4.20;57.60;;;;;;2334925;53;20996;-66
2022/04/02 07:04:11;;;;;;;5.47;3.72;;;4.20;57.70;;;;;;2336280;53;21060;-67
2022/04/02 07:06:44;;;;;;;5.62;3.92;;;4.20;57.70;;;;;;2335806;53;20942;-68
2022/04/02 07:09:11;;;;;;;6.55;4.22;;;4.30;57.80;;;;;;2578332;52;20941;-68
2022/04/02 07:11:38;;;;;;;4.78;3.60;;;4.20;57.70;;;;;;2336933;53;21012;-69
2022/04/02 07:14:05;;;;;;;5.78;3.62;;;4.30;57.70;;;;;;2333768;53;20949;-69
2022/04/02 07:16:32;;;;;;;5.97;3.90;;;4.20;57.60;;;;;;2338420;53;21072;-68
2022/04/02 07:19:01;;;;;;;7.10;4.10;;;4.30;57.70;;;;;;2334650;53;21048;-66
2022/04/02 07:21:27;;;;;;;5.28;3.55;;;4.30;57.60;;;;;;2335115;53;20935;-65
2022/04/02 07:23:54;;;;;;;7.25;4.45;;;4.20;57.60;;;;;;2335786;53;20909;-69
2022/04/02 07:26:20;;;;;;;5.32;3.80;;;4.20;57.60;;;;;;2334683;53;20925;-66
2022/04/02 07:28:47;;;;;;;6.25;4.03;;;4.20;57.60;;;;;;2354184;52;20948;-68
2022/04/02 07:31:14;;;;;;;6.70;4.45;;;4.20;57.60;;;;;;2334871;53;20969;-69
2022/04/02 07:33:40;;;;;;;6.55;4.15;;;4.20;57.60;;;;;;2334868;53;20944;-64
2022/04/02 07:36:17;;;;;;;6.40;4.68;;;4.20;57.70;;;;;;2341452;53;20978;-68
2022/04/02 07:40:17;;;;;;;6.30;4.20;;;4.20;57.70;;;;;;2561319;52;20936;-66
2022/04/02 07:42:53;;;;;;;5.45;3.83;;;4.20;57.90;;;;;;2335432;53;21016;-66
2022/04/02 07:45:26;;;;;;;9.25;5.15;;;4.20;57.70;;;;;;2334511;53;22096;-67
2022/04/02 07:47:55;;;;;;;5.90;4.07;;;4.20;57.70;;;;;;2336734;53;21029;-65
2022/04/02 07:50:24;;;;;;;6.22;4.65;;;4.20;57.80;;;;;;2333809;53;20998;-68
2022/04/02 07:52:51;;;;;;;6.45;4.43;;;4.20;57.70;;;;;;2338892;53;20988;-65
2022/04/02 07:55:18;;;;;;;7.07;4.28;;;4.20;57.80;;;;;;2580340;52;21051;-68
2022/04/02 07:57:46;;;;;;;7.00;4.25;;;4.30;57.90;;;;;;2337394;53;20951;-68
2022/04/02 08:00:19;;;;;;;6.97;4.30;;;4.30;57.90;;;;;;2334664;53;20964;-66
2022/04/02 08:02:46;;;;;;;7.53;4.37;;;4.30;58.00;;;;;;2337709;53;20968;-65
2022/04/02 08:05:14;;;;;;;7.62;4.30;;;4.30;57.90;;;;;;2334549;53;21056;-65
2022/04/02 08:07:49;;;;;;;6.43;4.25;;;4.30;57.90;;;;;;2337211;53;21382;-67
2022/04/02 08:10:22;;;;;;;7.82;4.40;;;4.30;57.90;;;;;;2335644;53;21049;-67
2022/04/02 08:12:48;;;;;;;6.78;4.30;;;4.30;57.90;;;;;;2317561;53;21035;-67
2022/04/02 08:15:16;;;;;;;6.82;4.32;;;4.30;57.80;;;;;;2303674;53;20964;-66
2022/04/02 08:17:44;;;;;;;7.18;4.28;;;4.30;57.90;;;;;;2308285;54;21309;-69
2022/04/02 08:20:11;;;;;;;6.95;4.10;;;4.30;57.90;;;;;;2310741;54;21016;-66
2022/04/02 08:22:40;;;;;;;6.45;4.12;;;4.40;58.00;;;;;;2306715;54;20957;-65
2022/04/02 08:25:08;;;;;;;8.88;4.45;;;4.40;57.90;;;;;;2308254;54;20933;-68
2022/04/02 08:27:53;;;;;;;6.87;4.47;;;4.40;57.90;;;;;;2306861;54;20961;-67
2022/04/02 08:30:28;;;;;;;7.03;4.37;;;4.40;58.00;;;;;;2310354;54;21079;-70
2022/04/02 08:33:28;;;;;;;8.57;4.80;;;4.40;57.90;;;;;;2319721;54;20916;-68
2022/04/02 08:36:29;;;;;;;6.30;4.40;;;4.40;57.80;;;;;;2314325;54;21471;-69
2022/04/02 08:39:24;;;;;;;7.53;3.78;;;4.50;57.90;;;;;;2339351;53;21024;-68
2022/04/02 08:42:57;;;;;;;5.00;3.17;;;4.40;57.80;;;;;;2319509;53;20936;-70
2022/04/02 08:45:30;;;;;;;7.40;3.97;;;4.40;57.90;;;;;;2333258;53;20956;-68
2022/04/02 08:50:48;;;;;;;5.57;3.90;;;4.50;57.80;;;;;;2297344;54;20963;-68
2022/04/02 08:53:22;;;;;;;6.10;3.40;;;4.50;57.80;;;;;;2329994;54;20964;-67
2022/04/02 08:55:51;;;;;;;6.60;4.12;;;4.50;57.70;;;;;;2329301;54;20956;-69
2022/04/02 08:58:25;;;;;;;6.22;3.83;;;4.50;57.70;;;;;;2329135;53;20945;-67
2022/04/02 09:01:05;;;;;;;5.68;3.42;;;4.50;57.80;;;;;;2329841;54;21074;-67
2022/04/02 09:04:43;;;;;;;7.05;3.92;;;4.50;57.80;;;;;;2573580;53;21510;-67
2022/04/02 09:07:35;;;;;;;7.82;4.30;;;4.50;57.90;;;;;;2329360;54;21996;-70
2022/04/02 09:11:53;;;;;;;5.68;3.78;;;4.50;57.80;;;;;;2332639;53;20989;-69
2022/04/02 09:14:59;;;;;;;5.78;4.00;;;4.50;57.80;;;;;;2333034;53;22048;-70
2022/04/02 09:19:11;;;;;;;7.95;4.20;;;4.50;57.80;;;;;;2394783;53;20940;-68
2022/04/02 09:24:21;;;;;;;6.35;4.07;;;4.50;57.80;;;;;;2430601;53;20948;-65
2022/04/02 09:28:43;;;;;;;6.25;3.60;;;4.60;57.90;;;;;;2329715;54;20945;-68
2022/04/02 09:33:19;;;;;;;6.68;4.37;;;4.60;57.80;;;;;;2333195;53;21052;-66
2022/04/02 09:42:52;;;;;;;7.47;4.50;;;4.60;57.80;;;;;;2331303;54;20971;-68
2022/04/02 09:45:21;;;;;;;7.53;4.20;;;4.70;57.90;;;;;;2330656;53;21035;-67
2022/04/02 09:48:30;;;;;;;6.50;4.28;;;4.70;57.40;;;;;;2331583;53;20924;-69
2022/04/02 09:50:57;;;;;;;6.10;4.10;;;4.70;57.70;;;;;;2331245;53;21063;-69
2022/04/02 09:53:27;;;;;;;6.28;3.67;;;4.70;57.70;;;;;;2324310;53;21083;-69
2022/04/02 09:56:57;;;;;;;6.20;3.83;;;4.70;57.80;;;;;;2326756;53;20984;-67
2022/04/02 10:00:22;;;;;;;7.95;4.90;;;4.70;57.90;;;;;;2330119;54;20948;-67
2022/04/02 10:03:35;;;;;;;7.82;5.12;;;4.70;57.80;;;;;;2330055;54;20945;-69
2022/04/02 10:06:26;;;;;;;8.55;4.90;;;4.80;57.90;;;;;;2330458;53;21028;-66
2022/04/02 10:09:09;;;;;;;6.03;4.10;;;4.80;57.90;;;;;;2330458;53;20913;-67
2022/04/02 10:12:23;;;;;;;8.10;4.72;;;4.80;57.90;;;;;;2310010;55;21025;-68
2022/04/02 10:14:58;;;;;;;7.37;4.82;;;4.80;57.90;;;;;;2329489;53;21916;-68
2022/04/02 10:17:28;;;;;;;6.60;4.50;;;4.80;57.90;;;;;;2330178;54;21051;-68
2022/04/02 10:19:58;;;;;;;6.90;3.87;;;4.90;58.00;;;;;;2329665;54;21474;-69
2022/04/02 10:22:55;;;;;;;7.32;4.32;;;4.90;58.10;;;;;;2333163;53;20993;-66
2022/04/02 10:25:22;;;;;;;10.05;5.18;;;4.90;58.20;;;;;;2333384;53;20941;-66
2022/04/02 10:27:48;;;;;;;8.60;5.20;;;5.00;58.00;;;;;;2572312;53;21986;-70
2022/04/02 10:30:15;;;;;;;7.75;5.20;;;5.00;57.90;;;;;;2330269;54;20944;-66
2022/04/02 10:32:57;;;;;;;8.85;5.10;;;5.00;57.80;;;;;;2329203;54;22080;-68
2022/04/02 10:35:25;;;;;;;7.15;4.97;;;5.00;57.80;;;;;;2329583;54;20941;-68
2022/04/02 10:38:09;;;;;;;6.87;5.00;;;5.00;57.70;;;;;;2329580;54;21064;-69
2022/04/02 10:40:43;;;;;;;8.35;4.60;;;5.10;57.90;;;;;;2329938;54;21477;-69
2022/04/02 10:43:15;;;;;;;7.18;4.75;;;5.10;57.80;;;;;;2329739;54;20941;-67
2022/04/02 10:45:42;;;;;;;7.25;5.43;;;5.10;57.80;;;;;;2330047;54;21419;-66
2022/04/02 10:48:15;;;;;;;7.78;5.00;;;5.10;57.80;;;;;;2334149;53;21096;-69
2022/04/02 10:50:44;;;;;;;7.75;5.50;;;5.10;57.80;;;;;;2436026;52;20947;-68
2022/04/02 10:53:12;;;;;;;7.45;4.82;;;5.10;57.80;;;;;;2329897;54;21015;-69
2022/04/02 10:55:43;;;;;;;7.40;5.28;;;5.20;57.90;;;;;;2337357;53;21013;-68
2022/04/02 10:58:11;;;;;;;6.62;4.47;;;5.20;57.80;;;;;;2323980;53;20936;-70
2022/04/02 11:00:38;;;;;;;6.93;4.82;;;5.20;57.80;;;;;;2332934;53;21703;-68
2022/04/02 11:03:06;;;;;;;7.45;5.00;;;5.20;57.70;;;;;;2389591;53;20968;-69
2022/04/02 11:05:37;;;;;;;7.28;5.30;;;5.20;57.70;;;;;;2332677;53;21016;-68
2022/04/02 11:08:12;;;;;;;8.88;5.05;;;5.20;57.70;;;;;;2410699;53;20944;-68
2022/04/02 11:10:38;;;;;;;8.02;5.05;;;5.20;58.30;;;;;;2329875;53;21021;-68
2022/04/02 11:13:06;;;;;;;8.00;4.80;;;5.20;57.70;;;;;;2574433;53;20999;-68
2022/04/02 11:15:41;;;;;;;8.10;5.80;;;5.20;57.60;;;;;;2330141;53;20991;-67
2022/04/02 11:18:20;;;;;;;7.95;5.80;;;5.20;57.40;;;;;;2329051;53;20983;-71
2022/04/02 11:20:50;;;;;;;6.65;4.78;;;5.20;57.40;;;;;;2310503;55;21063;-69
2022/04/02 11:23:41;;;;;;;6.75;4.78;;;5.20;57.40;;;;;;2310659;55;21932;-68
2022/04/02 11:26:07;;;;;;;7.82;5.37;;;5.20;57.40;;;;;;2443012;53;21003;-69
2022/04/02 11:28:43;;;;;;;7.12;4.97;;;5.20;57.40;;;;;;2336355;53;21119;-67
2022/04/02 11:31:09;;;;;;;6.12;4.60;;;5.20;57.40;;;;;;2330301;54;20960;-69
2022/04/02 11:33:49;;;;;;;7.20;5.10;;;5.20;57.50;;;;;;2329471;54;20944;-66
2022/04/02 11:36:16;;;;;;;7.05;4.85;;;5.20;57.70;;;;;;2330234;54;21541;-68
2022/04/02 11:38:53;;;;;;;7.00;4.37;;;5.20;57.80;;;;;;2329780;54;21412;-68
2022/04/02 11:41:27;;;;;;;6.03;4.05;;;5.20;57.80;;;;;;2330034;54;21031;-68
2022/04/02 11:44:09;;;;;;;5.72;3.40;;;5.30;57.80;;;;;;2329983;54;20929;-67
2022/04/02 11:47:09;;;;;;;5.93;4.10;;;5.30;57.90;;;;;;2521576;53;21006;-68
2022/04/02 11:49:39;;;;;;;7.22;4.60;;;5.30;57.70;;;;;;2331314;53;20961;-65
2022/04/02 11:52:09;;;;;;;6.55;4.47;;;5.40;57.60;;;;;;2329685;53;21908;-66
2022/04/02 11:54:41;;;;;;;7.55;4.60;;;5.40;57.50;;;;;;2332956;54;22068;-67
2022/04/02 11:57:11;;;;;;;7.65;4.50;;;5.40;57.50;;;;;;2326745;53;21098;-67
2022/04/02 11:59:50;;;;;;;6.30;4.22;;;5.40;57.50;;;;;;2327771;54;20964;-67
2022/04/02 12:02:33;;;;;;;6.93;4.75;;;5.40;57.60;;;;;;2329509;54;20944;-66
2022/04/02 12:05:05;;;;;;;6.22;4.20;;;5.40;57.60;;;;;;2574145;53;20984;-66
2022/04/02 12:08:32;;;;;;;6.40;4.32;;;5.40;57.50;;;;;;2329391;54;21509;-67
2022/04/02 12:10:59;;;;;;;6.15;4.55;;;5.40;57.40;;;;;;2330826;53;21503;-67
2022/04/02 12:13:25;;;;;;;7.07;4.65;;;5.40;57.30;;;;;;2333362;53;20948;-67
2022/04/02 12:16:13;;;;;;;7.45;4.85;;;5.40;57.40;;;;;;2330148;53;20932;-68
2022/04/02 12:18:54;;;;;;;7.20;4.55;;;5.40;57.50;;;;;;2334899;54;21445;-67
2022/04/02 12:21:40;;;;;;;7.15;4.05;;;5.40;57.70;;;;;;2311018;55;22045;-66
2022/04/02 12:24:11;;;;;;;6.40;4.43;;;5.40;57.60;;;;;;2329117;54;20932;-67
2022/04/02 12:26:38;;;;;;;7.22;4.45;;;5.40;57.60;;;;;;2329372;54;21008;-65
2022/04/02 12:29:06;;;;;;;6.78;4.45;;;5.40;57.60;;;;;;2329810;54;20991;-67
2022/04/02 12:31:34;;;;;;;5.93;4.47;;;5.50;57.70;;;;;;2329145;54;20929;-66
2022/04/02 12:34:01;;;;;;;6.22;4.50;;;5.50;57.80;;;;;;2328738;54;21003;-68
2022/04/02 12:36:35;;;;;;;6.12;3.70;;;5.50;57.90;;;;;;2329916;54;21055;-66
2022/04/02 12:39:10;;;;;;;6.68;4.03;;;5.60;58.00;;;;;;2330037;54;20995;-67
2022/04/02 12:41:49;;;;;;;6.93;4.35;;;5.60;57.80;;;;;;2329774;54;20988;-67
2022/04/02 12:44:19;;;;;;;7.65;4.62;;;5.60;57.70;;;;;;2329668;54;21033;-68
2022/04/02 12:46:45;;;;;;;8.82;4.95;;;5.60;57.60;;;;;;2335029;53;20996;-66
2022/04/02 12:49:29;;;;;;;6.30;4.50;;;5.60;58.00;;;;;;2320750;53;21063;-66
2022/04/02 12:52:15;;;;;;;6.90;3.97;;;5.60;57.40;;;;;;2573424;53;21486;-68
2022/04/02 12:54:47;;;;;;;5.43;3.92;;;5.60;57.30;;;;;;2331869;53;21049;-68
2022/04/02 12:57:15;;;;;;;6.55;4.15;;;5.60;57.30;;;;;;2328208;54;21517;-68
2022/04/02 12:59:44;;;;;;;5.62;4.00;;;5.60;57.30;;;;;;2328547;54;21917;-66
2022/04/02 13:02:12;;;;;;;6.25;4.07;;;5.60;57.30;;;;;;2328601;54;20944;-67
2022/04/02 13:04:39;;;;;;;6.30;4.20;;;5.50;57.20;;;;;;2328824;54;20952;-67
2022/04/02 13:07:11;;;;;;;7.20;4.35;;;5.50;57.30;;;;;;2572818;53;20964;-68
2022/04/02 13:09:46;;;;;;;7.93;5.55;;;5.50;57.40;;;;;;2328847;54;20984;-66
2022/04/02 13:12:21;;;;;;;7.60;4.93;;;5.50;57.40;;;;;;2332181;53;20941;-67
2022/04/02 13:15:04;;;;;;;6.97;5.18;;;5.50;57.40;;;;;;2328078;53;20932;-67
2022/04/02 13:20:28;;;;;;;8.02;5.00;;;5.50;57.50;;;;;;2329721;54;20921;-68
2022/04/02 13:22:54;;;;;;;7.72;5.20;;;5.50;57.50;;;;;;2331529;54;20964;-68
2022/04/02 13:25:24;;;;;;;6.57;4.45;;;5.50;57.40;;;;;;2329759;54;20988;-67
2022/04/02 13:28:28;;;;;;;6.65;4.72;;;5.60;57.50;;;;;;2573625;53;20936;-66
2022/04/02 13:30:57;;;;;;;6.95;4.60;;;5.60;57.70;;;;;;2308146;53;22043;-67
2022/04/02 13:34:01;;;;;;;7.87;4.10;;;5.60;57.80;;;;;;2580957;52;20962;-68
2022/04/02 13:41:42;;;;;;;6.53;4.22;;;5.60;58.00;;;;;;2347161;53;21004;-67
2022/04/02 13:44:18;;;;;;;7.22;4.28;;;5.70;57.90;;;;;;2345274;53;20964;-68
2022/04/02 13:46:47;;;;;;;5.90;4.03;;;5.80;57.60;;;;;;2344717;53;21043;-67
2022/04/02 13:49:13;;;;;;;7.03;4.70;;;5.80;57.50;;;;;;2410612;53;20923;-66